Latest Weather Observations for Bellambi

IDN60801

Issued at 5:05 pm EDT Thursday 27 November 2014 (issued every 30 minutes, with the page automatically refreshed every 10 minutes)

About weather observations | Map of weather stations | Latest weather observations for NSW | Other Formats
Station Details ID: 068228 Name: BELLAMBI AWS Lat: -34.37 Lon: 150.93 Height: 10.0 m
Data from the previous 72 hours. | See also: Recent months at Bellambi
Date/Time
EDT
Temp
°C
App
Temp
°C
Dew
Point
Rel
Hum
%
Delta-T
°C
Wind Press
QNH
hPa
Press
MSL
hPa
Rain
since 9 am
mm
Dir
 
Spd
km/h
Gust
km/h
Spd
kts
Gust
kts
27/05:00pm 18.0 15.6 13.7 76 2.4 S 19 24 10 13 - - 2.8
27/04:30pm 18.0 15.1 14.1 78 2.2 S 22 28 12 15 - - 2.8
27/04:00pm 18.3 15.8 14.2 77 2.4 S 20 24 11 13 - - 2.8
27/03:30pm 18.4 16.6 14.5 78 2.3 S 17 22 9 12 - - 2.8
27/03:00pm 18.3 16.2 15.2 82 1.8 S 20 28 11 15 - - 2.8
27/02:30pm 17.8 15.2 14.9 83 1.7 S 22 28 12 15 - - 2.8
27/02:00pm 17.8 15.3 15.2 85 1.5 S 22 28 12 15 - - 2.8
27/01:30pm 17.3 17.1 15.8 91 0.9 SW 11 15 6 8 - - 2.8
27/01:00pm 16.8 16.1 15.5 92 0.8 SW 13 17 7 9 - - 2.8
27/12:30pm 16.6 15.9 15.5 93 0.6 SW 13 17 7 9 - - 2.8
27/12:00pm 16.5 15.8 15.4 93 0.6 SW 13 19 7 10 - - 2.6
27/11:30am 16.4 14.8 15.1 92 0.8 WSW 17 22 9 12 - - 2.6
27/11:00am 16.4 13.8 14.9 91 0.9 SSW 22 28 12 15 - - 2.2
27/10:30am 16.7 13.8 15.2 91 0.9 SSW 24 32 13 17 - - 2.0
27/10:00am 17.0 14.6 15.3 90 1.0 SSW 22 30 12 16 - - 0.4
27/09:30am 17.0 14.6 15.3 90 1.0 S 22 28 12 15 - - 0.2
27/09:00am 16.8 14.3 15.2 90 0.9 SSE 22 28 12 15 - - 23.0
27/08:46am 16.9 13.4 15.4 91 0.9 SSE 28 33 15 18 - - 23.0
27/08:34am 17.0 13.0 15.3 90 1.0 S 30 37 16 20 - - 22.6
27/08:30am 17.1 13.5 15.3 89 1.0 S 28 37 15 20 - - 22.4
27/08:00am 17.4 13.9 15.6 89 1.1 S 28 35 15 19 - - 22.4
27/07:30am 17.5 14.6 15.1 86 1.4 SSE 24 32 13 17 - - 22.4
27/07:03am 17.0 13.6 15.7 92 0.8 SSE 28 35 15 19 - - 22.4
27/07:00am 17.1 14.5 15.8 92 0.8 SSE 24 35 13 19 - - 22.4
27/06:49am 16.6 13.8 15.3 92 0.8 SSE 24 32 13 17 - - 22.2
27/06:30am 16.5 12.2 15.4 93 0.6 S 32 37 17 20 - - 22.0
27/06:17am 16.6 12.3 15.5 93 0.6 S 32 41 17 22 - - 21.6
27/06:00am 16.7 12.3 15.6 93 0.6 S 33 39 18 21 - - 20.6
27/05:30am 16.7 12.4 15.4 92 0.8 SSW 32 44 17 24 - - 19.6
27/05:00am 16.9 12.1 15.6 92 0.8 SSW 35 46 19 25 - - 18.6
27/04:42am 17.0 11.8 15.5 91 0.9 S 37 46 20 25 - - 17.8
27/04:30am 17.5 12.1 16.0 91 0.9 S 39 46 21 25 - - 16.6
27/04:19am 17.5 11.2 15.7 89 1.1 S 43 50 23 27 - - 16.2
27/04:08am 18.5 13.4 16.8 90 1.0 SSE 39 48 21 26 - - 16.2
27/04:00am 18.0 12.3 16.3 90 1.0 SSE 41 48 22 26 - - 16.2
27/03:30am 18.0 12.9 16.7 92 0.8 SSE 39 48 21 26 - - 15.4
27/03:20am 18.4 14.8 17.1 92 0.8 SSE 32 44 17 24 - - 11.8
27/03:00am 18.3 14.5 16.8 91 0.9 SE 32 41 17 22 - - 7.8
27/02:47am 18.1 14.6 16.6 91 0.9 SSE 30 37 16 20 - - 7.8
27/02:30am 18.5 15.1 16.7 89 1.1 SSE 30 37 16 20 - - 4.0
27/02:23am 18.8 15.7 16.6 87 1.3 SSE 28 33 15 18 - - 2.4
27/02:12am 19.3 15.3 16.3 83 1.8 N 32 57 17 31 - - 0.0
27/02:07am 19.7 15.7 16.3 81 2.0 SSW 32 39 17 21 - - 0.0
27/02:00am 20.1 20.6 16.5 80 2.2 S 9 13 5 7 - - 0.0
27/01:30am 20.5 21.1 16.7 79 2.3 ESE 9 11 5 6 - - 0.0
27/01:00am 20.4 20.9 16.6 79 2.3 ESE 9 13 5 7 - - 0.0
27/12:30am 20.6 20.7 16.6 78 2.4 E 11 11 6 6 - - 0.0
27/12:00am 20.6 21.2 16.8 79 2.3 ENE 9 11 5 6 - - 0.0
 
Date/Time
EDT
Temp
°C
App
Temp
°C
Dew
Point
Rel
Hum
%
Delta-T
°C
Wind Press
QNH
hPa
Press
MSL
hPa
Rain
since 9 am
mm
Dir
 
Spd
km/h
Gust
km/h
Spd
kts
Gust
kts
26/11:30pm 20.6 21.1 16.6 78 2.4 E 9 11 5 6 - - 0.0
26/11:00pm 20.6 20.4 16.6 78 2.4 ENE 13 17 7 9 - - 0.0
26/10:30pm 20.8 19.9 16.8 78 2.4 ENE 17 19 9 10 - - 0.0
26/10:00pm 21.0 19.7 16.8 77 2.6 ENE 19 22 10 12 - - 0.0
26/09:30pm 21.0 19.6 17.0 78 2.4 ENE 20 24 11 13 - - 0.0
26/09:00pm 21.0 19.5 16.8 77 2.6 ENE 20 24 11 13 - - 0.0
26/08:30pm 21.0 18.8 16.8 77 2.6 ENE 24 26 13 14 - - 0.0
26/08:00pm 20.9 18.2 16.5 76 2.7 NE 26 28 14 15 - - 0.0
26/07:30pm 21.1 18.5 16.9 77 2.6 NE 26 32 14 17 - - 0.0
26/07:00pm 21.0 18.0 16.8 77 2.6 NE 28 35 15 19 - - 0.0
26/06:30pm 21.0 18.5 17.0 78 2.4 NE 26 32 14 17 - - 0.0
26/06:00pm 21.4 17.7 17.0 76 2.7 NE 32 37 17 20 - - 0.0
26/05:30pm 21.2 16.9 16.8 76 2.7 NE 35 41 19 22 - - 0.0
26/05:00pm 21.6 16.6 17.0 75 2.8 NE 39 46 21 25 - - 0.0
26/04:30pm 21.8 16.3 16.7 73 3.1 NE 41 46 22 25 - - 0.0
26/04:00pm 22.0 16.5 16.7 72 3.2 NE 41 48 22 26 - - 0.0
26/03:30pm 22.1 16.6 16.8 72 3.2 NE 41 48 22 26 - - 0.0
26/03:00pm 22.4 17.0 17.1 72 3.3 NE 41 46 22 25 - - 0.0
26/02:30pm 22.3 16.6 16.3 69 3.6 NE 41 46 22 25 - - 0.0
26/02:00pm 22.0 16.1 15.8 68 3.7 NE 41 46 22 25 - - 0.0
26/01:30pm 22.2 16.8 16.0 68 3.7 NE 39 44 21 24 - - 0.0
26/01:00pm 21.9 16.6 16.4 71 3.3 NE 39 44 21 24 - - 0.0
26/12:30pm 21.5 15.8 15.1 67 3.8 NE 39 46 21 25 - - 0.0
26/12:00pm 22.3 17.7 16.1 68 3.7 NE 35 39 19 21 - - 0.0
26/11:30am 22.6 18.3 15.9 66 4.0 NE 33 39 18 21 - - 0.0
26/11:00am 21.8 17.8 15.2 66 3.9 NE 30 33 16 18 - - 0.0
26/10:30am 22.0 18.3 15.1 65 4.1 NE 28 32 15 17 - - 0.0
26/10:00am 21.9 19.5 14.3 62 4.4 NE 20 24 11 13 - - 0.0
26/09:30am 21.1 18.5 13.8 63 4.2 NE 20 24 11 13 - - 0.0
26/09:00am 21.6 19.4 14.3 63 4.3 NE 19 22 10 12 - - 0.2
26/08:30am 21.2 18.9 14.6 66 3.9 NNE 20 24 11 13 - - 0.2
26/08:00am 20.1 18.2 14.2 69 3.4 N 17 22 9 12 - - 0.2
26/07:30am 19.3 17.2 13.7 70 3.2 N 17 22 9 12 - - 0.2
26/07:00am 19.3 16.7 13.9 71 3.1 N 20 24 11 13 - - 0.2
26/06:30am 19.2 16.3 14.0 72 3.0 N 22 28 12 15 - - 0.2
26/06:00am 18.6 17.2 13.5 72 2.9 N 13 19 7 10 - - 0.2
26/05:30am 18.6 16.7 13.0 70 3.2 NNW 15 17 8 9 - - 0.2
26/05:00am 19.1 16.5 13.7 71 3.1 NNE 20 28 11 15 - - 0.2
26/04:30am 19.2 15.8 13.8 71 3.1 NNE 24 33 13 18 - - 0.2
26/04:00am 19.0 15.5 13.4 70 3.2 NE 24 28 13 15 - - 0.2
26/03:30am 18.9 15.3 13.1 69 3.3 NE 24 30 13 16 - - 0.2
26/03:00am 19.0 16.3 13.4 70 3.2 NE 20 28 11 15 - - 0.2
26/02:30am 18.9 16.3 13.1 69 3.3 ENE 19 24 10 13 - - 0.2
26/02:00am 19.0 16.2 13.2 69 3.3 NE 20 26 11 14 - - 0.2
26/01:30am 18.9 16.3 13.1 69 3.3 NE 19 24 10 13 - - 0.2
26/01:00am 18.8 17.0 13.2 70 3.2 NE 15 22 8 12 - - 0.2
26/12:30am 18.1 17.6 13.8 76 2.4 N 9 15 5 8 - - 0.2
26/12:00am 18.3 17.3 13.4 73 2.8 NNE 11 19 6 10 - - 0.2
 
Date/Time
EDT
Temp
°C
App
Temp
°C
Dew
Point
Rel
Hum
%
Delta-T
°C
Wind Press
QNH
hPa
Press
MSL
hPa
Rain
since 9 am
mm
Dir
 
Spd
km/h
Gust
km/h
Spd
kts
Gust
kts
25/11:30pm 18.1 17.3 13.0 72 2.9 NNE 9 15 5 8 - - 0.2
25/11:00pm 18.9 16.1 12.6 67 3.5 NE 19 22 10 12 - - 0.2
25/10:30pm 19.1 16.3 13.3 69 3.3 E 20 24 11 13 - - 0.2
25/10:00pm 19.1 16.0 13.5 70 3.2 E 22 28 12 15 - - 0.2
25/09:30pm 19.1 16.4 13.5 70 3.2 E 20 26 11 14 - - 0.2
25/09:00pm 19.0 15.4 13.2 69 3.3 E 24 30 13 16 - - 0.2
25/08:30pm 19.1 15.6 13.5 70 3.2 E 24 26 13 14 - - 0.2
25/08:00pm 19.1 16.6 13.5 70 3.2 E 19 24 10 13 - - 0.2
25/07:30pm 19.1 16.0 13.5 70 3.2 E 22 26 12 14 - - 0.2
25/07:00pm 19.2 16.4 13.2 68 3.4 ESE 20 24 11 13 - - 0.2
25/06:30pm 19.3 16.7 13.2 68 3.5 ESE 19 22 10 12 - - 0.2
25/06:00pm 19.5 16.7 13.2 67 3.6 E 20 24 11 13 - - 0.2
25/05:30pm 19.7 17.0 13.4 67 3.6 E 20 24 11 13 - - 0.0
25/05:00pm 20.0 17.4 13.2 65 3.9 E 19 24 10 13 - - 0.0
25/04:30pm 20.2 17.7 13.4 65 3.9 E 19 22 10 12 - - 0.0
25/04:00pm 20.6 18.1 13.6 64 4.0 E 19 22 10 12 - - 0.0
25/03:30pm 20.4 17.3 13.4 64 4.0 E 22 28 12 15 - - 0.0
25/03:00pm 20.4 17.4 13.8 66 3.8 E 22 26 12 14 - - 0.0
25/02:30pm 21.0 19.3 14.6 67 3.7 E 17 22 9 12 - - 0.0
25/02:00pm 20.3 18.6 13.7 66 3.8 E 15 20 8 11 - - 0.0
25/01:30pm 20.1 18.1 13.8 67 3.6 ESE 17 24 9 13 - - 0.0
25/01:00pm 21.1 19.8 15.9 72 3.1 ESE 17 22 9 12 - - 0.0
25/12:30pm 20.3 18.2 15.1 72 3.1 SE 20 24 11 13 - - 0.0
25/12:00pm 19.5 16.7 14.3 72 3.0 SSE 22 28 12 15 - - 0.0
25/11:30am 19.5 16.4 14.5 73 2.9 SSE 24 33 13 18 - - 0.0
25/11:00am 19.6 16.3 15.0 75 2.7 S 26 32 14 17 - - 0.0
25/10:30am 19.4 15.7 15.1 76 2.5 S 28 35 15 19 - - 0.0
25/10:00am 19.2 14.0 15.5 79 2.2 S 37 48 20 26 - - 0.0
25/09:30am 19.3 13.7 15.6 79 2.2 S 39 46 21 25 - - 0.0
25/09:00am 21.1 17.9 15.2 69 3.5 SSW 26 39 14 21 - - 8.4
25/08:30am 22.0 19.6 13.9 60 4.7 SW 19 24 10 13 - - 8.4
25/08:00am 22.3 21.3 15.6 66 4.0 SW 15 20 8 11 - - 8.4
25/07:30am 22.4 21.8 16.7 70 3.5 SW 15 19 8 10 - - 8.4
25/07:00am 22.1 23.3 18.3 79 2.4 WSW 9 11 5 6 - - 8.4
25/06:30am 22.0 23.0 19.4 85 1.7 WSW 13 17 7 9 - - 8.4
25/06:00am 21.9 24.3 19.6 87 1.5 WNW 6 9 3 5 - - 8.4
25/05:30am 22.3 24.2 19.7 85 1.7 WSW 9 13 5 7 - - 8.4
25/05:00am 22.7 26.4 19.9 84 1.8 CALM 0 0 0 0 - - 8.4
25/04:30am 22.7 26.4 19.9 84 1.8 CALM 0 0 0 0 - - 8.4
25/04:00am 23.2 25.9 20.2 83 1.9 NNW 6 11 3 6 - - 8.4
25/03:30am 22.9 24.5 19.9 83 1.9 SSW 11 17 6 9 - - 8.4
25/03:00am 23.0 24.6 20.0 83 1.9 WNW 11 15 6 8 - - 8.4
25/02:30am 22.4 23.8 20.3 88 1.4 N 13 22 7 12 - - 8.4
25/02:00am 21.7 23.8 20.2 91 1.0 E 9 13 5 7 - - 8.4
25/01:30am 21.7 23.7 20.0 90 1.1 ESE 9 17 5 9 - - 8.4
25/01:00am 21.7 24.1 20.0 90 1.1 NE 7 9 4 5 - - 8.4
25/12:30am 21.8 24.1 19.9 89 1.2 N 7 9 4 5 - - 8.4
25/12:00am 21.8 23.2 19.5 87 1.5 N 11 17 6 9 - - 8.4
 
Date/Time
EDT
Temp
°C
App
Temp
°C
Dew
Point
Rel
Hum
%
Delta-T
°C
Wind Press
QNH
hPa
Press
MSL
hPa
Rain
since 9 am
mm
Dir
 
Spd
km/h
Gust
km/h
Spd
kts
Gust
kts
24/11:30pm 22.3 24.5 19.7 85 1.7 N 7 15 4 8 - - 8.4
24/11:00pm 22.4 25.3 19.9 86 1.6 S 4 9 2 5 - - 8.4
24/10:30pm 22.3 24.6 19.8 86 1.6 W 7 13 4 7 - - 8.4
24/10:00pm 21.8 23.6 19.5 87 1.5 NNW 9 19 5 10 - - 8.4
24/09:30pm 21.8 24.1 19.5 87 1.5 WNW 6 7 3 4 - - 7.8
24/09:00pm 21.6 24.3 19.5 88 1.3 SW 4 9 2 5 - - 6.6
24/08:30pm 21.3 23.8 19.0 87 1.5 SW 4 9 2 5 - - 6.6
24/08:00pm 21.4 23.5 19.3 88 1.3 WNW 7 7 4 4 - - 6.6
24/07:30pm 21.5 22.1 19.4 88 1.3 N 15 20 8 11 - - 6.6
24/07:00pm 21.4 22.2 19.1 87 1.5 NNE 13 17 7 9 - - 6.6
24/06:30pm 21.6 23.1 19.0 85 1.6 N 9 13 5 7 - - 6.6
24/06:00pm 21.9 25.2 19.1 84 1.8 CALM 0 0 0 0 - - 6.6
24/05:30pm 21.2 23.0 18.8 86 1.5 N 7 13 4 7 - - 6.6

Other Formats:

Comma delimited format used in spreadsheet applications
http://www.bom.gov.au/fwo/IDN60801/IDN60801.94749.axf

JavaScript Object Notation format (JSON) in row-major order
http://www.bom.gov.au/fwo/IDN60801/IDN60801.94749.json